Time;durP1;ratioP1;P1;durP2;ratioP2;P2;SDS_P1;SDS_P2;PMS_P1;PMS_P2;Temp;Humidity;BMP_temperature;BMP_pressure;BME280_temperature;BME280_humidity;BME280_pressure;Samples;Min_cycle;Max_cycle;Signal;HPM_P1;HPM_P2
2022/10/10 00:01:25;;;;;;;7.10;2.00;;;16.70;68.10;;;;;;5048555;28;20264;-71
2022/10/10 00:03:53;;;;;;;6.80;1.67;;;16.90;68.30;;;;;;5051983;28;20257;-72
2022/10/10 00:06:21;;;;;;;10.23;1.80;;;17.30;66.10;;;;;;5054373;28;20175;-71
2022/10/10 00:08:49;;;;;;;9.93;1.87;;;17.50;63.00;;;;;;5050416;28;20551;-71
2022/10/10 00:11:18;;;;;;;6.57;1.60;;;17.80;63.50;;;;;;5042840;28;20213;-72
2022/10/10 00:13:46;;;;;;;6.40;1.60;;;18.00;62.60;;;;;;5054318;28;20198;-71
2022/10/10 00:16:14;;;;;;;7.67;1.87;;;17.50;62.60;;;;;;5054744;28;20204;-70
2022/10/10 00:18:42;;;;;;;12.60;2.20;;;17.20;64.20;;;;;;5054085;28;20180;-71
2022/10/10 00:21:10;;;;;;;8.70;1.83;;;17.10;63.60;;;;;;5054722;28;20207;-71
2022/10/10 00:23:38;;;;;;;9.63;1.60;;;17.20;65.10;;;;;;5054238;28;20254;-71
2022/10/10 00:26:06;;;;;;;10.50;1.80;;;17.30;64.60;;;;;;5053065;28;20245;-70
2022/10/10 00:28:37;;;;;;;9.37;2.27;;;17.00;64.00;;;;;;5046307;28;20175;-72
2022/10/10 00:31:08;;;;;;;8.67;1.80;;;16.80;64.60;;;;;;5055577;28;20281;-72
2022/10/10 00:33:37;;;;;;;7.23;1.70;;;17.00;65.30;;;;;;5054879;28;20218;-72
2022/10/10 00:36:05;;;;;;;9.23;1.60;;;17.00;63.90;;;;;;5053297;28;20215;-73
2022/10/10 00:38:32;;;;;;;4.60;1.70;;;16.90;64.40;;;;;;5053074;28;20516;-71
2022/10/10 00:41:01;;;;;;;8.27;1.87;;;16.90;64.60;;;;;;5054798;28;20187;-71
2022/10/10 00:43:29;;;;;;;6.53;1.57;;;17.00;66.00;;;;;;5053008;28;20966;-71
2022/10/10 00:45:56;;;;;;;4.73;1.77;;;17.20;64.30;;;;;;5054414;28;20251;-71
2022/10/10 00:48:25;;;;;;;9.10;1.90;;;17.30;64.10;;;;;;5055188;28;20183;-73
2022/10/10 00:50:54;;;;;;;5.63;1.83;;;17.20;63.00;;;;;;5055248;28;20168;-71
2022/10/10 00:53:26;;;;;;;10.67;1.87;;;17.20;64.50;;;;;;5054298;28;20182;-72
2022/10/10 00:55:54;;;;;;;7.53;1.60;;;17.10;63.50;;;;;;5054341;28;20634;-71
2022/10/10 00:58:23;;;;;;;6.60;2.33;;;17.20;63.90;;;;;;5055148;28;20188;-72
2022/10/10 01:00:51;;;;;;;15.77;2.07;;;17.10;62.70;;;;;;5054423;28;20218;-72
2022/10/10 01:03:18;;;;;;;7.30;1.83;;;17.20;63.50;;;;;;5054941;28;20537;-70
2022/10/10 01:05:46;;;;;;;6.00;1.53;;;17.40;63.60;;;;;;5054487;28;20172;-69
2022/10/10 01:08:16;;;;;;;6.73;1.63;;;17.80;61.40;;;;;;5054518;28;20184;-70
2022/10/10 01:11:30;;;;;;;8.73;1.70;;;18.10;60.90;;;;;;5066658;28;20171;-70
2022/10/10 01:14:19;;;;;;;10.07;1.50;;;18.40;59.80;;;;;;5054461;28;20577;-70
2022/10/10 01:16:56;;;;;;;12.90;1.63;;;18.50;59.10;;;;;;5054320;28;20279;-70
2022/10/10 01:19:30;;;;;;;6.27;1.63;;;18.80;58.10;;;;;;5056560;28;20258;-70
2022/10/10 01:22:24;;;;;;;12.93;1.97;;;19.10;59.00;;;;;;5040737;28;20172;-70
2022/10/10 01:25:10;;;;;;;7.87;1.57;;;18.90;57.70;;;;;;5046928;28;20177;-71
2022/10/10 01:27:52;;;;;;;6.17;1.40;;;18.80;58.40;;;;;;5056036;28;20200;-69
2022/10/10 01:34:27;;;;;;;7.23;1.30;;;18.40;58.40;;;;;;5046950;28;20217;-70
2022/10/10 01:37:15;;;;;;;6.70;1.50;;;18.30;58.60;;;;;;5047108;28;20230;-70
2022/10/10 01:39:56;;;;;;;5.43;1.43;;;18.00;59.80;;;;;;5054311;28;20184;-70
2022/10/10 01:42:36;;;;;;;5.67;1.73;;;17.70;60.20;;;;;;5052571;28;20187;-70
2022/10/10 01:45:05;;;;;;;9.70;1.80;;;17.30;60.70;;;;;;5051140;28;20172;-70
2022/10/10 01:47:32;;;;;;;6.60;1.33;;;17.10;62.20;;;;;;5052861;28;20252;-69
2022/10/10 01:50:05;;;;;;;5.37;1.60;;;17.10;63.50;;;;;;5050900;28;20650;-69
2022/10/10 01:52:46;;;;;;;4.87;1.50;;;17.00;63.90;;;;;;5039922;28;20170;-70
2022/10/10 01:55:36;;;;;;;8.00;1.80;;;16.90;62.60;;;;;;5053856;28;20179;-70
2022/10/10 01:58:44;;;;;;;7.10;1.37;;;16.80;63.50;;;;;;5052622;28;20190;-70
2022/10/10 02:01:34;;;;;;;12.07;1.90;;;16.80;64.00;;;;;;5053839;28;20672;-70
2022/10/10 02:04:33;;;;;;;9.47;1.97;;;16.60;63.30;;;;;;5053291;28;20184;-69
2022/10/10 02:07:14;;;;;;;8.60;1.70;;;16.40;62.80;;;;;;5048151;28;20686;-69
2022/10/10 02:09:45;;;;;;;7.90;1.60;;;16.40;63.60;;;;;;5062662;28;20264;-70
2022/10/10 02:12:13;;;;;;;6.13;1.63;;;16.50;64.10;;;;;;5056166;28;20692;-71
2022/10/10 02:14:51;;;;;;;6.73;1.63;;;16.50;64.30;;;;;;5046073;28;20274;-69
2022/10/10 02:17:38;;;;;;;7.60;1.70;;;16.50;63.70;;;;;;5046907;28;20220;-70
2022/10/10 02:20:10;;;;;;;15.63;2.00;;;16.30;64.20;;;;;;5052119;28;20652;-70
2022/10/10 02:22:40;;;;;;;9.40;2.10;;;16.20;64.40;;;;;;5052332;28;20268;-70
2022/10/10 02:25:33;;;;;;;5.47;1.50;;;16.30;64.50;;;;;;5052122;28;20323;-71
2022/10/10 02:28:15;;;;;;;12.70;1.93;;;16.30;64.50;;;;;;5045092;28;20600;-71
2022/10/10 02:30:46;;;;;;;4.37;1.37;;;16.30;64.60;;;;;;5045077;28;20594;-70
2022/10/10 02:33:28;;;;;;;5.33;1.40;;;16.30;64.50;;;;;;5048170;28;20182;-71
2022/10/10 02:35:55;;;;;;;3.97;1.57;;;16.50;64.10;;;;;;5049786;28;20186;-70
2022/10/10 02:38:23;;;;;;;9.10;1.60;;;16.40;65.30;;;;;;5040408;28;20191;-70
2022/10/10 02:40:51;;;;;;;5.33;1.70;;;16.40;65.10;;;;;;5047655;28;20179;-70
2022/10/10 02:43:19;;;;;;;6.90;1.73;;;16.50;65.10;;;;;;5041648;28;20191;-70
2022/10/10 02:45:47;;;;;;;7.80;1.83;;;16.40;63.60;;;;;;5044131;28;20309;-69
2022/10/10 02:48:14;;;;;;;6.73;1.47;;;16.40;64.30;;;;;;5050386;28;20194;-69
2022/10/10 02:50:43;;;;;;;8.83;1.70;;;16.50;64.90;;;;;;5044634;28;20271;-70
2022/10/10 02:53:10;;;;;;;4.90;1.80;;;16.50;66.40;;;;;;5046540;28;20182;-69
2022/10/10 02:55:38;;;;;;;7.63;1.57;;;16.40;67.40;;;;;;5045871;28;20195;-69
2022/10/10 02:58:05;;;;;;;6.57;1.40;;;16.30;68.40;;;;;;5044694;28;20207;-70
2022/10/10 03:00:32;;;;;;;7.87;1.77;;;16.30;68.60;;;;;;5040534;28;20186;-70
2022/10/10 03:03:00;;;;;;;6.23;1.30;;;16.60;70.70;;;;;;5042783;28;20195;-70
2022/10/10 03:05:27;;;;;;;8.47;1.43;;;16.50;69.40;;;;;;5046931;28;20667;-70
2022/10/10 03:07:54;;;;;;;6.67;1.43;;;16.50;68.10;;;;;;5045644;28;20183;-70
2022/10/10 03:10:22;;;;;;;5.30;1.27;;;16.70;68.80;;;;;;5047408;28;20186;-70
2022/10/10 03:12:49;;;;;;;8.53;1.63;;;16.70;67.00;;;;;;5042286;28;20194;-70
2022/10/10 03:15:16;;;;;;;10.87;1.73;;;16.70;67.10;;;;;;5042321;28;20180;-69
2022/10/10 03:21:29;;;;;;;9.87;1.63;;;16.70;65.50;;;;;;5048297;28;20610;-70
2022/10/10 03:25:01;;;;;;;7.90;1.90;;;16.90;64.80;;;;;;5063653;28;20687;-71
2022/10/10 03:27:38;;;;;;;11.53;1.67;;;17.10;64.20;;;;;;5063308;28;20213;-69
2022/10/10 03:33:31;;;;;;;8.43;1.77;;;17.10;62.30;;;;;;5057970;28;20194;-70
2022/10/10 03:36:18;;;;;;;7.27;1.47;;;17.20;61.80;;;;;;5053475;28;20307;-71
2022/10/10 03:38:46;;;;;;;5.87;1.67;;;17.40;60.80;;;;;;5056318;28;20201;-69
2022/10/10 03:41:13;;;;;;;7.17;1.50;;;17.50;60.60;;;;;;5065128;28;20258;-71
2022/10/10 03:43:40;;;;;;;5.60;1.57;;;17.40;60.50;;;;;;5056747;28;20195;-71
2022/10/10 03:46:08;;;;;;;6.57;1.37;;;17.50;59.40;;;;;;5070128;28;20241;-70
2022/10/10 03:48:36;;;;;;;8.27;1.87;;;17.80;59.80;;;;;;5066030;28;20190;-71
2022/10/10 03:51:03;;;;;;;8.33;1.50;;;18.00;59.10;;;;;;5063139;28;20269;-71
2022/10/10 03:53:31;;;;;;;7.13;1.30;;;18.40;57.50;;;;;;5063138;28;20182;-71
2022/10/10 03:55:58;;;;;;;4.67;1.30;;;18.80;56.30;;;;;;5049886;28;20610;-71
2022/10/10 03:58:26;;;;;;;6.70;1.57;;;19.10;55.30;;;;;;5048225;28;20201;-72
2022/10/10 04:00:55;;;;;;;7.50;1.57;;;19.20;54.10;;;;;;5050422;28;20184;-69
2022/10/10 04:03:23;;;;;;;5.50;1.20;;;19.40;53.50;;;;;;5055975;28;20222;-70
2022/10/10 04:05:50;;;;;;;7.83;1.30;;;19.40;53.10;;;;;;5053633;28;20215;-71
2022/10/10 04:08:18;;;;;;;5.23;1.63;;;19.60;52.10;;;;;;5043948;28;20184;-71
2022/10/10 04:10:49;;;;;;;5.37;1.40;;;19.80;53.40;;;;;;5079778;28;20230;-70
2022/10/10 04:13:17;;;;;;;6.30;1.40;;;19.70;52.40;;;;;;5047405;28;20539;-70
2022/10/10 04:16:06;;;;;;;7.90;1.47;;;19.30;52.80;;;;;;5050647;28;20223;-71
2022/10/10 04:18:33;;;;;;;6.37;1.60;;;19.10;53.50;;;;;;5051772;28;20278;-70
2022/10/10 04:21:05;;;;;;;5.40;1.23;;;19.70;52.10;;;;;;5054097;28;20564;-71
2022/10/10 04:23:32;;;;;;;8.73;1.37;;;19.70;52.20;;;;;;5051324;28;20182;-71
2022/10/10 04:26:00;;;;;;;6.40;1.90;;;19.10;53.60;;;;;;5047945;28;20212;-73
2022/10/10 04:28:27;;;;;;;10.40;1.53;;;18.70;55.20;;;;;;5054549;28;20567;-71
2022/10/10 04:30:55;;;;;;;6.77;1.20;;;18.70;55.20;;;;;;5053529;28;20210;-70
2022/10/10 04:33:22;;;;;;;3.37;1.37;;;18.70;55.60;;;;;;5054937;28;20217;-71
2022/10/10 04:35:50;;;;;;;5.97;1.63;;;18.00;57.00;;;;;;5055427;28;20176;-71
2022/10/10 04:38:20;;;;;;;5.03;1.37;;;18.10;57.00;;;;;;5055310;28;20191;-71
2022/10/10 04:40:50;;;;;;;9.83;1.50;;;17.80;58.00;;;;;;5055252;28;20226;-69
2022/10/10 04:43:18;;;;;;;7.33;1.70;;;17.80;58.50;;;;;;5055235;28;20222;-71
2022/10/10 04:45:46;;;;;;;3.07;1.20;;;17.70;58.00;;;;;;5055285;28;20685;-70
2022/10/10 04:48:14;;;;;;;19.97;5.33;;;18.10;57.60;;;;;;5055044;28;20211;-71
2022/10/10 04:50:41;;;;;;;4.50;1.33;;;18.80;56.20;;;;;;5054691;28;20248;-73
2022/10/10 04:53:08;;;;;;;5.20;1.20;;;19.90;52.90;;;;;;5035050;28;20179;-71
2022/10/10 04:55:36;;;;;;;9.27;1.67;;;19.50;52.70;;;;;;5065579;28;20672;-72
2022/10/10 04:58:03;;;;;;;6.30;1.70;;;19.30;53.40;;;;;;5055384;28;20227;-70
2022/10/10 05:00:31;;;;;;;7.20;1.43;;;18.70;54.90;;;;;;5054066;28;20545;-71
2022/10/10 05:02:58;;;;;;;5.23;1.53;;;18.40;55.60;;;;;;5055050;28;20184;-70
2022/10/10 05:05:25;;;;;;;5.03;1.50;;;18.10;56.80;;;;;;5051714;28;20536;-70
2022/10/10 05:07:53;;;;;;;7.37;1.50;;;18.60;56.50;;;;;;5048501;28;20251;-70
2022/10/10 05:10:20;;;;;;;4.30;1.27;;;19.40;54.20;;;;;;5049488;28;20187;-69
2022/10/10 05:12:48;;;;;;;5.80;1.40;;;19.20;53.50;;;;;;5053932;28;20302;-69
2022/10/10 05:15:16;;;;;;;5.00;1.37;;;18.80;54.10;;;;;;5053031;28;20179;-69
2022/10/10 05:17:43;;;;;;;8.53;1.87;;;19.90;52.80;;;;;;5054293;28;20223;-69
2022/10/10 05:20:11;;;;;;;8.80;1.53;;;20.80;49.80;;;;;;5054191;28;20188;-70
2022/10/10 05:22:38;;;;;;;5.83;1.50;;;19.80;50.80;;;;;;5047691;28;20184;-70
2022/10/10 05:25:06;;;;;;;8.33;1.60;;;19.30;52.20;;;;;;5053851;28;20188;-69
2022/10/10 05:27:33;;;;;;;7.27;1.30;;;18.80;53.80;;;;;;5040271;28;20616;-70
2022/10/10 05:30:01;;;;;;;5.97;1.60;;;18.30;55.00;;;;;;5039303;28;20184;-70
2022/10/10 05:32:28;;;;;;;3.40;1.43;;;18.20;56.10;;;;;;5053789;28;20700;-69
2022/10/10 05:34:55;;;;;;;4.63;1.43;;;18.00;56.50;;;;;;5042016;28;20239;-70
2022/10/10 05:37:23;;;;;;;3.37;1.67;;;18.00;57.20;;;;;;5053905;28;20204;-70
2022/10/10 05:39:50;;;;;;;6.87;1.40;;;17.80;57.80;;;;;;5053471;28;20164;-69
2022/10/10 05:42:17;;;;;;;9.33;1.60;;;17.80;58.60;;;;;;5054473;28;20234;-68
2022/10/10 05:44:44;;;;;;;4.87;1.20;;;17.30;58.60;;;;;;5060586;28;20199;-69
2022/10/10 05:47:12;;;;;;;6.10;1.30;;;17.20;59.00;;;;;;5049500;28;20737;-67
2022/10/10 05:49:39;;;;;;;7.73;1.80;;;17.20;59.30;;;;;;5052842;28;20270;-69
2022/10/10 05:52:07;;;;;;;5.80;1.50;;;16.90;59.50;;;;;;5043105;28;20186;-69
2022/10/10 05:54:34;;;;;;;5.83;1.60;;;16.90;59.80;;;;;;5045002;28;20191;-69
2022/10/10 05:57:01;;;;;;;14.20;1.60;;;16.80;60.30;;;;;;5049273;28;20577;-68
2022/10/10 05:59:29;;;;;;;6.30;1.70;;;16.80;60.70;;;;;;5051719;28;20598;-68
2022/10/10 06:01:57;;;;;;;5.03;1.53;;;16.90;60.40;;;;;;5052301;28;20637;-69
2022/10/10 06:04:24;;;;;;;9.23;1.80;;;16.80;60.90;;;;;;5051539;28;20190;-71
2022/10/10 06:06:51;;;;;;;7.37;1.50;;;16.80;60.90;;;;;;5049858;28;20194;-69
2022/10/10 06:09:19;;;;;;;9.60;1.60;;;16.70;61.00;;;;;;5053398;28;20198;-69
2022/10/10 06:11:46;;;;;;;7.03;2.07;;;16.70;61.40;;;;;;5050650;28;20195;-69
2022/10/10 06:14:14;;;;;;;8.77;2.07;;;16.70;61.40;;;;;;5044454;28;20636;-70
2022/10/10 06:16:44;;;;;;;10.60;1.97;;;16.70;61.30;;;;;;5052386;28;20261;-70
2022/10/10 06:19:12;;;;;;;4.50;1.60;;;16.70;61.60;;;;;;5049994;28;20230;-69
2022/10/10 06:21:39;;;;;;;8.47;1.90;;;16.70;61.60;;;;;;5050090;28;20228;-69
2022/10/10 06:24:09;;;;;;;10.77;2.00;;;16.80;61.80;;;;;;5056510;28;20214;-69
2022/10/10 06:26:36;;;;;;;7.17;2.00;;;16.70;61.10;;;;;;5047183;28;20590;-68
2022/10/10 06:29:04;;;;;;;5.10;1.57;;;16.60;60.80;;;;;;5050382;28;20337;-70
2022/10/10 06:31:31;;;;;;;5.10;1.50;;;16.60;60.60;;;;;;5047400;28;20179;-69
2022/10/10 06:34:00;;;;;;;8.67;1.83;;;16.70;61.40;;;;;;5049954;28;20190;-69
2022/10/10 06:36:28;;;;;;;5.67;1.80;;;16.80;61.70;;;;;;5051141;28;20709;-69
2022/10/10 06:38:55;;;;;;;9.00;1.80;;;16.70;61.00;;;;;;5043546;28;20204;-69
2022/10/10 06:41:22;;;;;;;6.47;2.37;;;16.70;61.00;;;;;;5052148;28;20260;-70
2022/10/10 06:43:50;;;;;;;7.80;2.13;;;16.60;61.70;;;;;;5048515;28;20211;-69
2022/10/10 06:46:18;;;;;;;8.60;1.80;;;16.50;61.30;;;;;;5050295;28;20222;-69
2022/10/10 06:48:45;;;;;;;8.53;1.87;;;16.50;62.00;;;;;;5051269;28;20186;-68
2022/10/10 06:51:17;;;;;;;10.03;2.07;;;16.50;62.30;;;;;;5052853;28;20215;-68
2022/10/10 06:53:45;;;;;;;9.07;2.33;;;16.60;61.90;;;;;;5045987;28;20184;-68
2022/10/10 06:56:20;;;;;;;4.63;1.90;;;16.50;61.70;;;;;;5053014;28;20239;-68
2022/10/10 06:58:48;;;;;;;6.47;2.13;;;16.50;62.20;;;;;;5051194;28;20218;-69
2022/10/10 07:01:18;;;;;;;7.57;1.90;;;16.40;62.40;;;;;;5051986;28;20181;-68
2022/10/10 07:03:45;;;;;;;8.93;2.20;;;16.40;62.40;;;;;;5050364;28;20193;-68
2022/10/10 07:06:13;;;;;;;4.27;2.00;;;16.40;62.90;;;;;;5055843;28;20200;-70
2022/10/10 07:08:41;;;;;;;4.30;1.50;;;16.30;61.80;;;;;;5050981;28;20260;-68
2022/10/10 07:11:09;;;;;;;4.10;1.93;;;16.20;62.20;;;;;;5050764;28;20194;-68
2022/10/10 07:13:37;;;;;;;7.33;1.60;;;16.20;62.30;;;;;;5051013;28;20268;-70
2022/10/10 07:16:05;;;;;;;7.60;1.97;;;16.10;62.10;;;;;;5051028;28;20192;-69
2022/10/10 07:18:35;;;;;;;5.30;2.10;;;16.10;62.60;;;;;;5052385;28;20210;-68
2022/10/10 07:21:03;;;;;;;4.37;1.90;;;16.10;62.80;;;;;;5051956;28;20243;-70
2022/10/10 07:23:31;;;;;;;5.17;2.00;;;16.10;62.70;;;;;;5051984;28;20266;-71
2022/10/10 07:26:01;;;;;;;7.40;2.20;;;16.10;62.90;;;;;;5052440;28;20174;-68
2022/10/10 07:28:29;;;;;;;8.30;2.03;;;16.10;62.40;;;;;;5051995;28;20540;-71
2022/10/10 07:31:05;;;;;;;8.87;2.00;;;16.00;62.50;;;;;;5050624;28;20185;-68
2022/10/10 07:33:41;;;;;;;8.53;2.07;;;16.00;62.30;;;;;;5050737;28;20183;-69
2022/10/10 07:36:09;;;;;;;10.00;2.00;;;15.90;62.20;;;;;;5051604;28;20175;-69
2022/10/10 07:38:37;;;;;;;10.47;2.30;;;15.90;62.30;;;;;;5051599;28;20271;-68
2022/10/10 07:41:11;;;;;;;10.47;2.50;;;15.90;62.70;;;;;;5052242;28;20182;-68
2022/10/10 07:43:39;;;;;;;10.47;3.33;;;15.80;62.90;;;;;;5042296;28;20188;-69
2022/10/10 07:46:13;;;;;;;9.40;3.57;;;15.80;63.50;;;;;;5054537;28;20223;-68
2022/10/10 07:48:40;;;;;;;4.93;2.00;;;15.90;63.00;;;;;;5051206;28;20271;-68
2022/10/10 07:51:08;;;;;;;2.73;1.63;;;15.80;63.50;;;;;;5050408;28;20184;-68
2022/10/10 07:53:35;;;;;;;6.37;2.30;;;15.70;63.20;;;;;;5050472;28;20199;-68
2022/10/10 07:56:07;;;;;;;6.57;2.60;;;15.70;63.90;;;;;;5051837;28;20204;-70
2022/10/10 07:58:36;;;;;;;6.10;1.77;;;15.70;63.80;;;;;;5050918;28;20587;-69
2022/10/10 08:01:09;;;;;;;7.27;2.20;;;15.70;64.10;;;;;;5043829;28;20190;-69
2022/10/10 08:03:37;;;;;;;9.40;1.90;;;15.60;63.90;;;;;;5051933;28;20191;-69
2022/10/10 08:06:11;;;;;;;6.53;1.80;;;15.50;63.90;;;;;;5051659;28;20646;-69
2022/10/10 08:08:38;;;;;;;6.40;1.90;;;15.50;64.30;;;;;;5051588;28;20188;-68
2022/10/10 08:11:07;;;;;;;8.40;2.17;;;15.50;64.20;;;;;;5050189;28;20611;-69
2022/10/10 08:13:37;;;;;;;5.20;2.13;;;15.50;65.00;;;;;;5049790;28;20198;-68
2022/10/10 08:16:05;;;;;;;7.03;2.40;;;15.50;64.50;;;;;;5040168;28;20187;-68
2022/10/10 08:18:32;;;;;;;10.30;2.43;;;15.40;65.10;;;;;;5050751;28;20241;-69
2022/10/10 08:21:01;;;;;;;10.00;2.27;;;15.40;64.90;;;;;;5046421;28;20177;-70
2022/10/10 08:23:28;;;;;;;6.80;2.33;;;15.40;64.90;;;;;;5044455;28;20180;-70
2022/10/10 08:26:02;;;;;;;6.80;2.20;;;15.50;65.30;;;;;;5049682;28;20259;-69
2022/10/10 08:28:30;;;;;;;6.50;2.00;;;15.50;64.90;;;;;;5054656;28;20199;-70
2022/10/10 08:30:58;;;;;;;11.07;2.63;;;15.40;65.40;;;;;;5054256;28;20172;-70
2022/10/10 08:33:29;;;;;;;8.77;2.67;;;15.30;65.70;;;;;;5054133;28;20676;-70
2022/10/10 08:35:56;;;;;;;9.93;2.63;;;15.30;65.90;;;;;;5054535;28;20180;-70
2022/10/10 08:38:23;;;;;;;7.90;3.13;;;15.20;66.80;;;;;;5054012;28;20184;-70
2022/10/10 08:40:56;;;;;;;6.23;2.10;;;15.20;66.80;;;;;;5055082;28;20180;-70
2022/10/10 08:43:43;;;;;;;9.00;2.50;;;15.10;66.90;;;;;;5053487;28;20203;-69
2022/10/10 08:46:36;;;;;;;6.80;2.60;;;15.10;67.40;;;;;;5054880;28;20670;-71
2022/10/10 08:49:33;;;;;;;5.50;2.50;;;15.00;68.00;;;;;;5055084;27;20634;-71
2022/10/10 08:52:12;;;;;;;13.33;2.77;;;14.90;68.00;;;;;;5041644;28;20197;-70
2022/10/10 08:54:41;;;;;;;9.60;2.60;;;14.90;68.20;;;;;;5054272;28;20237;-70
2022/10/10 08:57:35;;;;;;;13.07;3.23;;;14.90;67.80;;;;;;5054752;28;20613;-71
2022/10/10 09:00:11;;;;;;;9.87;2.93;;;14.90;68.50;;;;;;5053461;28;20180;-69
2022/10/10 09:02:59;;;;;;;8.27;2.70;;;14.90;68.70;;;;;;5058451;28;20176;-70
2022/10/10 09:05:45;;;;;;;8.20;2.80;;;14.90;69.10;;;;;;5051624;28;20225;-69
2022/10/10 09:08:43;;;;;;;9.53;2.33;;;14.80;69.30;;;;;;5045634;28;20531;-70
2022/10/10 09:11:35;;;;;;;7.47;2.33;;;14.90;69.30;;;;;;5052925;28;20681;-69
2022/10/10 09:14:37;;;;;;;9.03;2.77;;;14.90;69.00;;;;;;5041234;28;20211;-70
2022/10/10 09:17:38;;;;;;;18.90;2.83;;;15.00;69.10;;;;;;5053346;28;20219;-70
2022/10/10 09:20:29;;;;;;;7.87;2.77;;;15.00;68.70;;;;;;5054349;28;20179;-70
2022/10/10 09:23:23;;;;;;;8.10;2.20;;;15.00;69.30;;;;;;5053281;28;20172;-70
2022/10/10 09:26:06;;;;;;;8.67;2.40;;;15.00;68.60;;;;;;5039943;28;20746;-70
2022/10/10 09:28:43;;;;;;;7.80;2.33;;;15.10;68.50;;;;;;5044405;28;20182;-70
2022/10/10 09:31:18;;;;;;;9.70;2.83;;;15.10;68.90;;;;;;5064613;28;20229;-70
2022/10/10 09:34:08;;;;;;;13.57;2.67;;;15.10;69.10;;;;;;5050655;28;20190;-69
2022/10/10 09:36:37;;;;;;;8.17;2.70;;;15.00;69.40;;;;;;5045261;28;20199;-70
2022/10/10 09:39:15;;;;;;;10.37;2.90;;;15.00;69.10;;;;;;5052651;28;20176;-70
2022/10/10 09:41:58;;;;;;;11.77;3.20;;;15.00;70.10;;;;;;5048075;28;20176;-69
2022/10/10 09:44:26;;;;;;;6.17;3.00;;;15.00;70.30;;;;;;5058282;28;20186;-69
2022/10/10 09:46:54;;;;;;;10.47;2.70;;;14.90;69.80;;;;;;5050893;28;20224;-70
2022/10/10 09:49:21;;;;;;;7.37;2.43;;;15.00;69.60;;;;;;5046311;28;20196;-69
2022/10/10 09:51:49;;;;;;;8.93;2.70;;;15.00;69.80;;;;;;5054164;28;20183;-70
2022/10/10 09:54:19;;;;;;;8.47;3.20;;;14.90;70.40;;;;;;5052267;28;20195;-70
2022/10/10 09:56:57;;;;;;;8.87;2.60;;;15.00;70.40;;;;;;5052661;28;20691;-69
2022/10/10 09:59:39;;;;;;;11.63;2.67;;;14.90;69.90;;;;;;5052712;28;20183;-69
2022/10/10 10:02:19;;;;;;;14.50;3.13;;;14.90;69.30;;;;;;5053420;28;20188;-69
2022/10/10 10:04:48;;;;;;;9.63;2.57;;;14.90;69.60;;;;;;5049312;28;20184;-70
2022/10/10 10:07:31;;;;;;;5.63;2.03;;;14.90;69.30;;;;;;5053111;28;20180;-70
2022/10/10 10:10:17;;;;;;;9.17;2.87;;;14.90;69.80;;;;;;5053071;28;20677;-68
2022/10/10 10:12:45;;;;;;;6.40;2.50;;;14.80;69.80;;;;;;5052558;28;20308;-69
2022/10/10 10:15:28;;;;;;;7.27;2.63;;;14.80;69.80;;;;;;5052629;28;20184;-69
2022/10/10 10:18:18;;;;;;;9.03;2.90;;;14.80;70.40;;;;;;5052921;28;20353;-70
2022/10/10 10:20:49;;;;;;;5.83;2.53;;;14.80;70.80;;;;;;5052388;28;20271;-69
2022/10/10 10:23:34;;;;;;;9.67;3.20;;;14.70;71.40;;;;;;5051962;28;21057;-69
2022/10/10 10:26:28;;;;;;;10.90;2.90;;;14.60;71.60;;;;;;5053446;28;20513;-69
2022/10/10 10:28:57;;;;;;;5.83;2.20;;;14.60;71.80;;;;;;5050358;28;20192;-69
2022/10/10 10:31:52;;;;;;;7.73;2.33;;;14.50;71.00;;;;;;5040689;28;20198;-69
2022/10/10 10:34:40;;;;;;;7.63;2.73;;;14.50;71.60;;;;;;5052407;28;20173;-69
2022/10/10 10:37:26;;;;;;;9.10;2.80;;;14.50;71.90;;;;;;5048609;28;20666;-70
2022/10/10 10:40:05;;;;;;;6.07;2.43;;;14.40;72.50;;;;;;5038172;28;20188;-69
2022/10/10 10:42:57;;;;;;;8.30;2.33;;;14.30;72.90;;;;;;5052508;28;20176;-70
2022/10/10 10:45:45;;;;;;;6.80;2.30;;;14.40;73.20;;;;;;5044333;28;20220;-70
2022/10/10 10:48:29;;;;;;;12.50;2.50;;;14.30;73.30;;;;;;5052197;28;20176;-70
2022/10/10 10:51:13;;;;;;;7.67;2.50;;;14.40;73.60;;;;;;5052555;28;20183;-70
2022/10/10 10:54:04;;;;;;;7.27;2.50;;;14.40;73.50;;;;;;5040140;28;20180;-70
2022/10/10 10:56:49;;;;;;;10.00;2.53;;;14.40;73.40;;;;;;5052385;28;20684;-70
2022/10/10 10:59:46;;;;;;;5.27;1.80;;;14.50;72.90;;;;;;5052933;28;20302;-70
2022/10/10 11:02:39;;;;;;;10.30;2.67;;;14.50;72.60;;;;;;5049568;28;20195;-70
2022/10/10 11:05:28;;;;;;;8.77;2.17;;;14.50;73.20;;;;;;5052665;28;20666;-70
2022/10/10 11:08:19;;;;;;;5.43;2.27;;;14.50;73.00;;;;;;5041618;28;20218;-69
2022/10/10 11:11:14;;;;;;;21.33;8.10;;;14.50;73.00;;;;;;5048765;28;20207;-70
2022/10/10 11:14:06;;;;;;;11.50;3.90;;;14.50;72.90;;;;;;5049316;28;20719;-70
2022/10/10 11:17:25;;;;;;;5.43;2.70;;;14.50;73.30;;;;;;5052415;28;20229;-71
2022/10/10 11:20:08;;;;;;;8.50;2.37;;;14.50;73.70;;;;;;5046049;28;20203;-70
2022/10/10 11:22:45;;;;;;;9.33;2.70;;;14.50;73.30;;;;;;5048632;28;20255;-71
2022/10/10 11:25:51;;;;;;;8.80;2.40;;;14.50;72.70;;;;;;5047045;28;20578;-70
2022/10/10 11:28:32;;;;;;;5.33;2.03;;;14.50;73.20;;;;;;5050975;28;20196;-70
2022/10/10 11:31:24;;;;;;;6.83;2.50;;;14.50;73.70;;;;;;5051739;28;20292;-70
2022/10/10 11:34:00;;;;;;;5.80;2.00;;;14.50;73.90;;;;;;5044154;28;20574;-70
2022/10/10 11:36:31;;;;;;;12.90;2.43;;;14.50;73.60;;;;;;5055264;28;20215;-70
2022/10/10 11:39:11;;;;;;;5.03;2.10;;;14.50;73.60;;;;;;5049834;28;20255;-70
2022/10/10 11:42:12;;;;;;;7.93;2.80;;;14.50;74.10;;;;;;5057758;28;20198;-70
2022/10/10 11:44:59;;;;;;;5.17;1.93;;;14.50;73.80;;;;;;5052035;28;20176;-69
2022/10/10 11:47:26;;;;;;;5.27;1.97;;;14.50;74.00;;;;;;5052096;28;20603;-70
2022/10/10 11:50:12;;;;;;;7.07;2.77;;;14.50;74.30;;;;;;5051195;28;20211;-70
2022/10/10 11:52:58;;;;;;;7.90;2.30;;;14.50;74.60;;;;;;5052135;28;20179;-70
2022/10/10 11:55:55;;;;;;;8.80;2.60;;;14.50;74.40;;;;;;5051998;28;20794;-70
2022/10/10 11:58:47;;;;;;;4.70;2.10;;;14.50;74.10;;;;;;5051891;28;20219;-71
2022/10/10 12:01:27;;;;;;;9.47;2.77;;;14.60;74.20;;;;;;5052430;28;20187;-70
2022/10/10 12:03:57;;;;;;;9.67;2.10;;;14.60;74.40;;;;;;5056207;28;20779;-70
2022/10/10 12:06:39;;;;;;;9.93;2.37;;;14.60;74.30;;;;;;5055981;28;20267;-70
2022/10/10 12:09:24;;;;;;;6.67;2.33;;;14.60;74.00;;;;;;5051778;28;20271;-69
2022/10/10 12:11:57;;;;;;;10.73;2.70;;;14.70;73.70;;;;;;5052339;28;20187;-70
2022/10/10 12:14:28;;;;;;;9.03;2.40;;;14.70;74.00;;;;;;5056112;28;20232;-70
2022/10/10 12:16:57;;;;;;;6.33;2.17;;;14.70;73.80;;;;;;5055895;28;20191;-70
2022/10/10 12:19:27;;;;;;;10.47;2.17;;;14.70;73.60;;;;;;5055013;28;20669;-70
2022/10/10 12:21:59;;;;;;;7.17;2.60;;;14.80;72.70;;;;;;5068103;28;20614;-70
2022/10/10 12:24:32;;;;;;;6.30;1.90;;;14.80;73.10;;;;;;5055808;28;20212;-70
2022/10/10 12:26:59;;;;;;;7.70;2.20;;;14.70;72.80;;;;;;5055451;28;20184;-71
2022/10/10 12:30:07;;;;;;;4.73;2.00;;;14.70;73.70;;;;;;5048715;28;20225;-70
2022/10/10 12:32:40;;;;;;;6.93;2.20;;;14.60;72.90;;;;;;5053923;28;20274;-70
2022/10/10 12:35:29;;;;;;;10.03;2.17;;;14.70;73.60;;;;;;5054817;28;20263;-70
2022/10/10 12:38:06;;;;;;;6.43;1.73;;;14.60;72.80;;;;;;5055385;28;20208;-70
2022/10/10 12:40:34;;;;;;;7.20;2.30;;;14.60;72.80;;;;;;5054261;28;20221;-70
2022/10/10 12:43:23;;;;;;;5.03;1.90;;;14.60;73.20;;;;;;5054458;28;20172;-70
2022/10/10 12:46:08;;;;;;;6.77;1.93;;;14.60;73.50;;;;;;5054632;28;20228;-70
2022/10/10 12:48:36;;;;;;;8.10;1.93;;;14.60;73.70;;;;;;5049868;28;20642;-70
2022/10/10 12:51:04;;;;;;;10.40;2.43;;;14.50;73.80;;;;;;5047280;28;20180;-70
2022/10/10 12:53:33;;;;;;;7.37;1.90;;;14.50;73.70;;;;;;5054697;28;20188;-70
2022/10/10 12:56:02;;;;;;;4.37;2.07;;;14.50;74.10;;;;;;5055022;28;20216;-70
2022/10/10 12:58:41;;;;;;;5.57;2.00;;;14.50;74.10;;;;;;5054825;28;20184;-67
2022/10/10 13:01:31;;;;;;;5.20;1.70;;;14.40;74.20;;;;;;5055177;28;20168;-68
2022/10/10 13:03:58;;;;;;;5.03;1.90;;;14.40;73.90;;;;;;5054147;28;20190;-68
2022/10/10 13:06:42;;;;;;;6.47;2.07;;;14.40;74.10;;;;;;5054721;28;20188;-68
2022/10/10 13:09:26;;;;;;;7.60;2.30;;;14.30;74.50;;;;;;5054816;28;20175;-69
2022/10/10 13:11:55;;;;;;;4.53;1.43;;;14.30;74.20;;;;;;5053828;28;20191;-69
2022/10/10 13:14:24;;;;;;;5.77;1.80;;;14.30;74.60;;;;;;5054066;28;20180;-70
2022/10/10 13:16:51;;;;;;;9.53;1.90;;;14.30;74.80;;;;;;5054384;28;20213;-69
2022/10/10 13:19:25;;;;;;;4.10;1.83;;;14.30;75.00;;;;;;5053590;28;20184;-70
2022/10/10 13:21:54;;;;;;;6.30;1.77;;;14.30;75.10;;;;;;5054837;28;20540;-69
2022/10/10 13:24:31;;;;;;;11.83;2.03;;;14.20;75.20;;;;;;5051408;28;20168;-70
2022/10/10 13:26:58;;;;;;;6.53;1.80;;;14.20;75.40;;;;;;5040989;28;20684;-70
2022/10/10 13:29:34;;;;;;;4.53;1.70;;;14.20;75.60;;;;;;5054662;28;20178;-69
2022/10/10 13:32:05;;;;;;;12.50;2.40;;;14.20;75.60;;;;;;5053815;28;20230;-70
2022/10/10 13:34:36;;;;;;;7.83;2.13;;;14.10;75.60;;;;;;5052018;28;20180;-69